Time;durP1;ratioP1;P1;durP2;ratioP2;P2;SDS_P1;SDS_P2;PMS_P1;PMS_P2;Temp;Humidity;BMP_temperature;BMP_pressure;BME280_temperature;BME280_humidity;BME280_pressure;Samples;Min_cycle;Max_cycle;Signal;HPM_P1;HPM_P2
2021/12/28 00:00:17;;;;;;;80.28;28.13;;;-0.60;84.00;;;;;;5011834;28;20057;-65
2021/12/28 00:02:48;;;;;;;77.18;27.88;;;-0.70;85.40;;;;;;5010576;28;20120;-66
2021/12/28 00:05:15;;;;;;;81.00;28.63;;;-0.60;84.10;;;;;;5002825;28;20121;-65
2021/12/28 00:07:42;;;;;;;72.63;29.02;;;-0.50;83.90;;;;;;5002554;28;20112;-65
2021/12/28 00:10:11;;;;;;;78.13;27.58;;;-0.60;83.60;;;;;;5011750;28;20033;-66
2021/12/28 00:12:38;;;;;;;79.60;30.40;;;-0.60;84.20;;;;;;5008779;28;20030;-65
2021/12/28 00:18:01;;;;;;;72.53;27.67;;;-0.70;84.30;;;;;;5003222;28;20505;-65
2021/12/28 00:20:28;;;;;;;70.70;28.50;;;-0.90;85.20;;;;;;5006302;28;20029;-66
2021/12/28 00:22:55;;;;;;;83.18;28.25;;;-1.00;85.40;;;;;;5002014;28;20309;-66
2021/12/28 00:25:21;;;;;;;80.07;29.10;;;-1.00;85.60;;;;;;5000755;28;20037;-63
2021/12/28 00:27:47;;;;;;;77.90;28.08;;;-1.20;86.40;;;;;;5008823;28;20137;-63
2021/12/28 00:30:12;;;;;;;78.88;29.30;;;-1.10;86.10;;;;;;5014733;28;20025;-65
2021/12/28 00:32:39;;;;;;;74.82;29.02;;;-1.10;86.20;;;;;;5011876;28;20032;-66
2021/12/28 00:35:05;;;;;;;71.68;29.35;;;-1.10;86.60;;;;;;5012744;28;20139;-66
2021/12/28 00:37:31;;;;;;;73.60;28.63;;;-1.10;85.70;;;;;;5004261;28;20858;-66
2021/12/28 00:39:57;;;;;;;76.82;30.38;;;-1.20;86.30;;;;;;5003780;28;20029;-66
2021/12/28 00:42:23;;;;;;;86.75;31.70;;;-1.00;86.20;;;;;;5012840;28;20800;-66
2021/12/28 00:44:49;;;;;;;79.28;29.98;;;-1.10;85.80;;;;;;5009281;28;20560;-66
2021/12/28 00:47:15;;;;;;;76.20;30.40;;;-1.10;85.80;;;;;;5007299;28;20088;-66
2021/12/28 00:49:41;;;;;;;78.60;31.75;;;-1.10;85.80;;;;;;5015352;28;20038;-65
2021/12/28 00:52:07;;;;;;;73.88;29.38;;;-1.10;85.80;;;;;;5010719;28;20557;-63
2021/12/28 00:54:32;;;;;;;79.63;29.08;;;-1.30;86.50;;;;;;5005353;28;20021;-63
2021/12/28 00:56:58;;;;;;;93.40;30.58;;;-1.20;86.80;;;;;;5013675;28;20036;-63
2021/12/28 00:59:24;;;;;;;83.97;31.90;;;-1.30;87.00;;;;;;5012856;28;20159;-63
2021/12/28 01:01:50;;;;;;;80.40;29.00;;;-1.50;87.70;;;;;;5002973;28;20048;-63
2021/12/28 01:04:15;;;;;;;89.95;31.10;;;-1.40;87.80;;;;;;5002760;28;20100;-63
2021/12/28 01:06:41;;;;;;;77.97;30.00;;;-1.30;87.80;;;;;;5013430;28;20044;-63
2021/12/28 01:09:07;;;;;;;94.28;33.47;;;-1.30;87.40;;;;;;5008573;28;20029;-63
2021/12/28 01:11:33;;;;;;;87.75;31.75;;;-1.30;86.90;;;;;;5021035;28;20029;-63
2021/12/28 01:13:59;;;;;;;82.05;31.20;;;-1.30;87.10;;;;;;5014581;28;20544;-63
2021/12/28 01:16:24;;;;;;;81.22;31.80;;;-1.20;86.80;;;;;;5010736;28;20040;-66
2021/12/28 01:18:50;;;;;;;77.03;30.85;;;-1.20;87.00;;;;;;5004274;28;20030;-63
2021/12/28 01:21:16;;;;;;;91.55;30.88;;;-1.20;87.20;;;;;;5003197;28;20038;-63
2021/12/28 01:23:41;;;;;;;85.63;32.67;;;-1.10;86.50;;;;;;5011842;28;20025;-65
2021/12/28 01:26:07;;;;;;;78.75;31.58;;;-1.00;86.00;;;;;;5010212;28;20426;-66
2021/12/28 01:28:33;;;;;;;91.38;30.85;;;-1.00;85.80;;;;;;5019903;28;20227;-63
2021/12/28 01:30:59;;;;;;;92.97;31.98;;;-1.10;86.00;;;;;;5016222;28;20145;-63
2021/12/28 01:33:24;;;;;;;85.80;31.50;;;-1.10;86.10;;;;;;5010020;28;20042;-63
2021/12/28 01:35:50;;;;;;;90.90;32.42;;;-1.40;87.30;;;;;;5008992;28;20037;-63
2021/12/28 01:38:17;;;;;;;90.55;31.88;;;-1.30;87.30;;;;;;5015759;28;20084;-63
2021/12/28 01:40:43;;;;;;;80.57;30.70;;;-1.40;87.20;;;;;;5013504;28;20057;-63
2021/12/28 01:43:15;;;;;;;90.47;30.63;;;-1.40;87.60;;;;;;5008515;28;20041;-63
2021/12/28 01:45:55;;;;;;;83.97;32.53;;;-1.40;87.60;;;;;;5022045;28;20709;-63
2021/12/28 01:48:25;;;;;;;81.70;30.75;;;-1.40;87.10;;;;;;5013450;28;20029;-63
2021/12/28 01:50:55;;;;;;;86.57;30.35;;;-1.60;88.00;;;;;;5016971;28;20397;-63
2021/12/28 01:53:21;;;;;;;90.85;32.75;;;-1.70;88.70;;;;;;5015832;28;20030;-63
2021/12/28 01:55:52;;;;;;;77.35;32.65;;;-1.60;88.50;;;;;;5016973;28;20025;-64
2021/12/28 01:58:18;;;;;;;90.90;32.05;;;-1.50;88.10;;;;;;5002029;28;20091;-64
2021/12/28 02:00:46;;;;;;;83.18;32.03;;;-1.50;88.00;;;;;;5006383;28;20037;-64
2021/12/28 02:03:15;;;;;;;88.78;32.67;;;-1.50;88.00;;;;;;5003655;28;20030;-65
2021/12/28 02:05:41;;;;;;;90.90;32.50;;;-1.60;88.40;;;;;;5017055;28;20166;-65
2021/12/28 02:08:09;;;;;;;101.50;34.45;;;-1.70;88.90;;;;;;5017789;28;20134;-65
2021/12/28 02:10:36;;;;;;;90.97;33.50;;;-1.70;89.30;;;;;;5019909;28;20032;-65
2021/12/28 02:13:03;;;;;;;85.00;33.75;;;-1.60;89.10;;;;;;5009326;28;20529;-65
2021/12/28 02:15:29;;;;;;;87.30;32.38;;;-1.50;88.10;;;;;;5006984;28;20072;-65
2021/12/28 02:17:55;;;;;;;92.40;33.80;;;-1.60;89.00;;;;;;5007910;28;20905;-65
2021/12/28 02:20:21;;;;;;;83.20;32.67;;;-1.50;88.60;;;;;;5018015;28;20041;-65
2021/12/28 02:22:47;;;;;;;98.75;33.50;;;-1.40;87.70;;;;;;5012995;28;20029;-67
2021/12/28 02:25:15;;;;;;;91.10;34.00;;;-1.30;87.10;;;;;;5013301;28;20026;-66
2021/12/28 02:27:41;;;;;;;96.20;33.88;;;-1.30;86.60;;;;;;5020583;28;20080;-66
2021/12/28 02:30:11;;;;;;;96.40;33.90;;;-1.30;87.00;;;;;;5008446;28;20026;-66
2021/12/28 02:32:38;;;;;;;96.80;34.10;;;-1.30;86.50;;;;;;5017675;28;20457;-66
2021/12/28 02:35:08;;;;;;;89.63;33.45;;;-1.60;88.00;;;;;;5013202;28;20421;-65
2021/12/28 02:37:33;;;;;;;91.82;32.90;;;-1.50;88.00;;;;;;5012074;28;20033;-66
2021/12/28 02:39:59;;;;;;;93.93;33.47;;;-1.80;89.10;;;;;;5005537;28;20036;-65
2021/12/28 02:42:26;;;;;;;95.90;32.85;;;-1.80;89.30;;;;;;5004497;28;20124;-66
2021/12/28 02:45:02;;;;;;;86.78;33.47;;;-1.80;89.50;;;;;;5004370;28;20034;-66
2021/12/28 02:47:30;;;;;;;88.05;34.33;;;-1.60;89.40;;;;;;5020543;28;20034;-66
2021/12/28 02:49:56;;;;;;;91.70;35.10;;;-1.50;88.90;;;;;;5016917;28;21047;-66
2021/12/28 02:52:22;;;;;;;97.75;33.58;;;-1.50;88.00;;;;;;5015037;28;20037;-64
2021/12/28 02:54:47;;;;;;;94.05;32.00;;;-1.60;88.50;;;;;;5013441;28;20026;-64
2021/12/28 02:57:13;;;;;;;78.82;29.73;;;-1.60;88.10;;;;;;5006467;28;20030;-64
2021/12/28 02:59:49;;;;;;;95.68;33.78;;;-1.60;88.20;;;;;;5008403;28;20033;-64
2021/12/28 03:02:17;;;;;;;89.57;31.77;;;-1.40;88.20;;;;;;5011562;28;20152;-64
2021/12/28 03:04:43;;;;;;;92.97;31.23;;;-1.40;87.50;;;;;;5009852;28;20036;-64
2021/12/28 03:07:09;;;;;;;84.50;32.30;;;-1.50;88.70;;;;;;5014637;28;20048;-64
2021/12/28 03:09:36;;;;;;;93.18;33.08;;;-1.60;88.20;;;;;;5012127;28;20116;-64
2021/12/28 03:12:03;;;;;;;86.25;31.85;;;-1.50;88.10;;;;;;5003956;28;20049;-64
2021/12/28 03:14:29;;;;;;;94.68;31.35;;;-1.40;87.80;;;;;;5012545;28;20063;-64
2021/12/28 03:16:55;;;;;;;90.53;31.83;;;-1.30;87.60;;;;;;5012165;28;20620;-64
2021/12/28 03:19:21;;;;;;;91.97;33.88;;;-1.30;87.30;;;;;;5008910;28;20065;-64
2021/12/28 03:21:47;;;;;;;97.38;34.15;;;-1.30;87.40;;;;;;5003470;28;20037;-65
2021/12/28 03:24:13;;;;;;;90.25;34.17;;;-1.30;87.50;;;;;;5016846;28;21032;-64
2021/12/28 03:26:39;;;;;;;86.22;32.95;;;-1.30;87.00;;;;;;5010569;28;20076;-64
2021/12/28 03:29:05;;;;;;;91.38;34.10;;;-1.30;87.60;;;;;;5014864;28;20029;-64
2021/12/28 03:31:32;;;;;;;93.60;33.80;;;-1.50;87.80;;;;;;5015209;28;20047;-64
2021/12/28 03:33:58;;;;;;;93.20;32.15;;;-1.50;88.20;;;;;;5010540;28;20049;-64
2021/12/28 03:36:28;;;;;;;94.05;32.42;;;-1.30;87.80;;;;;;5007462;28;20561;-64
2021/12/28 03:38:54;;;;;;;89.78;32.72;;;-1.40;87.70;;;;;;5002743;28;20034;-64
2021/12/28 03:41:22;;;;;;;94.32;33.00;;;-1.50;88.70;;;;;;5002588;28;20036;-64
2021/12/28 03:43:49;;;;;;;92.25;33.33;;;-1.40;88.30;;;;;;5007920;28;20417;-64
2021/12/28 03:46:16;;;;;;;92.13;32.63;;;-1.40;88.30;;;;;;5015798;28;20030;-64
2021/12/28 03:48:42;;;;;;;88.40;33.03;;;-1.40;88.00;;;;;;5016491;28;20040;-64
2021/12/28 03:51:08;;;;;;;87.68;33.10;;;-1.30;87.80;;;;;;5008110;28;20116;-64
2021/12/28 03:53:34;;;;;;;96.22;33.58;;;-1.40;87.70;;;;;;5001708;28;20029;-64
2021/12/28 03:56:02;;;;;;;92.47;31.77;;;-1.40;88.10;;;;;;5007388;28;20832;-64
2021/12/28 03:58:28;;;;;;;85.63;31.38;;;-1.30;88.60;;;;;;5013619;28;20037;-64
2021/12/28 04:00:54;;;;;;;92.07;30.77;;;-1.40;88.20;;;;;;5010037;28;20386;-64
2021/12/28 04:03:20;;;;;;;89.95;31.95;;;-1.20;87.80;;;;;;5003619;28;20034;-64
2021/12/28 04:05:45;;;;;;;97.55;32.58;;;-1.20;87.70;;;;;;5015516;28;20805;-64
2021/12/28 04:08:14;;;;;;;85.43;32.30;;;-1.10;87.40;;;;;;5004912;28;20046;-64
2021/12/28 04:10:52;;;;;;;87.28;32.30;;;-0.90;86.80;;;;;;5012773;28;20047;-64
2021/12/28 04:13:19;;;;;;;95.63;34.63;;;-0.90;86.30;;;;;;5012090;28;20038;-66
2021/12/28 04:15:46;;;;;;;88.18;32.80;;;-0.80;86.00;;;;;;5000212;28;20134;-64
2021/12/28 04:18:12;;;;;;;89.75;31.65;;;-0.70;85.90;;;;;;4991652;28;20041;-64
2021/12/28 04:20:38;;;;;;;86.05;32.53;;;-0.70;85.30;;;;;;5001348;28;20041;-66
2021/12/28 04:23:03;;;;;;;94.72;32.92;;;-0.70;85.00;;;;;;5013823;28;20041;-66
2021/12/28 04:25:30;;;;;;;89.55;32.35;;;-0.60;85.00;;;;;;5017096;28;20045;-66
2021/12/28 04:27:56;;;;;;;93.43;32.28;;;-0.50;84.80;;;;;;5024568;28;20048;-66
2021/12/28 04:30:21;;;;;;;73.97;31.13;;;-0.60;84.50;;;;;;5010819;28;20026;-66
2021/12/28 04:32:47;;;;;;;87.45;32.42;;;-0.60;85.00;;;;;;5009046;28;20512;-66
2021/12/28 04:35:14;;;;;;;94.25;33.53;;;-0.50;85.10;;;;;;5001438;28;20498;-66
2021/12/28 04:37:40;;;;;;;98.30;32.78;;;-0.50;84.00;;;;;;5005154;28;20133;-66
2021/12/28 04:40:08;;;;;;;94.55;33.00;;;-0.50;84.60;;;;;;5007077;28;20021;-66
2021/12/28 04:42:33;;;;;;;89.88;33.17;;;-0.60;84.70;;;;;;5006470;28;20025;-66
2021/12/28 04:44:59;;;;;;;88.07;33.00;;;-0.50;84.60;;;;;;5008734;28;20704;-66
2021/12/28 04:47:25;;;;;;;96.13;33.70;;;-0.60;84.50;;;;;;5008335;28;20109;-66
2021/12/28 04:49:51;;;;;;;98.57;34.72;;;-0.60;85.20;;;;;;5004383;28;20022;-66
2021/12/28 04:52:17;;;;;;;89.45;33.47;;;-0.50;84.80;;;;;;4997676;28;20105;-68
2021/12/28 04:54:44;;;;;;;92.72;32.63;;;-0.40;84.30;;;;;;5016575;28;20060;-66
2021/12/28 04:57:10;;;;;;;101.22;33.28;;;-0.40;84.00;;;;;;5015426;28;20128;-66
2021/12/28 04:59:36;;;;;;;88.13;32.72;;;-0.30;84.10;;;;;;5009710;28;20400;-66
2021/12/28 05:02:02;;;;;;;86.72;33.38;;;-0.40;84.30;;;;;;5004418;28;20042;-66
2021/12/28 05:04:28;;;;;;;88.80;34.00;;;-0.30;84.00;;;;;;5009125;28;20026;-66
2021/12/28 05:06:55;;;;;;;89.03;33.70;;;-0.30;84.30;;;;;;5012006;28;20040;-66
2021/12/28 05:09:21;;;;;;;83.70;33.00;;;-0.30;84.20;;;;;;5012798;28;20044;-66
2021/12/28 05:11:48;;;;;;;89.00;33.55;;;-0.30;84.10;;;;;;5010843;28;20029;-66
2021/12/28 05:14:16;;;;;;;97.53;34.38;;;-0.40;84.50;;;;;;5003448;28;20042;-65
2021/12/28 05:16:43;;;;;;;83.35;32.97;;;-0.50;85.00;;;;;;5015986;28;20033;-66
2021/12/28 05:19:09;;;;;;;99.03;32.55;;;-0.60;85.00;;;;;;5000636;28;20204;-66
2021/12/28 05:21:38;;;;;;;101.95;35.40;;;-0.60;85.80;;;;;;5007122;28;20473;-64
2021/12/28 05:24:04;;;;;;;89.47;32.75;;;-0.50;85.80;;;;;;5013360;28;20030;-64
2021/12/28 05:26:30;;;;;;;97.57;34.15;;;-0.40;85.30;;;;;;5011894;28;20025;-64
2021/12/28 05:28:56;;;;;;;93.32;32.50;;;-0.50;85.30;;;;;;5009076;28;20748;-64
2021/12/28 05:31:25;;;;;;;93.50;32.55;;;-0.50;86.10;;;;;;5002117;28;20584;-64
2021/12/28 05:33:52;;;;;;;102.40;34.58;;;-0.50;85.50;;;;;;5005224;28;20529;-66
2021/12/28 05:36:18;;;;;;;89.43;32.20;;;-0.50;85.70;;;;;;5011669;28;20494;-66
2021/12/28 05:38:44;;;;;;;80.97;32.58;;;-0.50;85.60;;;;;;5007559;28;20083;-67
2021/12/28 05:41:10;;;;;;;84.38;31.58;;;-0.30;85.40;;;;;;5004266;28;20033;-66
2021/12/28 05:43:35;;;;;;;88.93;33.45;;;-0.30;84.80;;;;;;5009717;28;20048;-66
2021/12/28 05:46:02;;;;;;;95.88;32.72;;;-0.30;84.70;;;;;;5007654;28;20133;-66
2021/12/28 05:48:27;;;;;;;96.30;32.67;;;-0.30;84.80;;;;;;5010407;28;20029;-66
2021/12/28 05:50:53;;;;;;;90.38;33.20;;;-0.50;85.40;;;;;;5013060;28;20076;-64
2021/12/28 05:53:19;;;;;;;90.75;33.28;;;-0.40;85.50;;;;;;5014115;28;20037;-64
2021/12/28 05:55:45;;;;;;;92.65;33.55;;;-0.40;85.50;;;;;;5007085;28;20032;-64
2021/12/28 05:58:11;;;;;;;89.40;31.83;;;-0.40;85.80;;;;;;5005333;28;20088;-65
2021/12/28 06:00:37;;;;;;;95.20;31.67;;;-0.40;85.70;;;;;;5003306;28;20047;-64
2021/12/28 06:03:03;;;;;;;84.68;31.48;;;-0.30;85.40;;;;;;5015751;28;20033;-64
2021/12/28 06:05:29;;;;;;;96.60;32.33;;;-0.40;85.70;;;;;;5018111;28;20041;-64
2021/12/28 06:07:54;;;;;;;97.68;33.72;;;-0.30;85.80;;;;;;5015032;28;20029;-64
2021/12/28 06:10:20;;;;;;;98.35;33.45;;;-0.30;85.50;;;;;;5009897;28;20065;-64
2021/12/28 06:12:46;;;;;;;88.90;32.88;;;-0.20;85.40;;;;;;5006216;28;20034;-67
2021/12/28 06:15:12;;;;;;;88.97;33.13;;;-0.10;85.20;;;;;;5004722;28;20099;-65
2021/12/28 06:17:39;;;;;;;94.93;34.35;;;0.00;84.90;;;;;;5010534;28;20033;-65
2021/12/28 06:20:05;;;;;;;90.95;32.95;;;0.00;84.30;;;;;;5013971;28;20021;-65
2021/12/28 06:22:31;;;;;;;91.57;31.52;;;0.00;84.00;;;;;;5008680;28;20045;-65
2021/12/28 06:24:57;;;;;;;87.90;33.95;;;0.00;84.30;;;;;;5013497;28;20107;-65
2021/12/28 06:27:23;;;;;;;86.50;30.60;;;-0.10;85.60;;;;;;5009578;28;20041;-64
2021/12/28 06:29:49;;;;;;;88.85;31.42;;;-0.30;85.40;;;;;;5012178;28;20100;-65
2021/12/28 06:32:15;;;;;;;80.20;29.95;;;-0.30;86.30;;;;;;5009384;28;20045;-65
2021/12/28 06:34:40;;;;;;;85.65;31.88;;;-0.30;86.10;;;;;;5011210;28;20037;-64
2021/12/28 06:37:06;;;;;;;86.57;31.33;;;-0.50;87.00;;;;;;5014252;28;20028;-65
2021/12/28 06:39:32;;;;;;;88.28;31.77;;;-0.50;87.60;;;;;;5011093;28;20477;-65
2021/12/28 06:41:58;;;;;;;86.43;31.75;;;-0.40;87.60;;;;;;5014957;28;20135;-65
2021/12/28 06:44:24;;;;;;;95.10;32.13;;;-0.40;87.00;;;;;;5014704;28;20044;-65
2021/12/28 06:46:50;;;;;;;82.05;31.63;;;-0.40;87.00;;;;;;5015908;28;20033;-65
2021/12/28 06:49:17;;;;;;;89.00;32.97;;;-0.40;87.40;;;;;;5007145;28;20025;-65
2021/12/28 06:51:44;;;;;;;95.93;32.92;;;-0.40;87.20;;;;;;5009983;28;20079;-65
2021/12/28 06:54:09;;;;;;;88.22;31.77;;;-0.40;87.30;;;;;;5011615;28;20054;-65
2021/12/28 06:56:35;;;;;;;89.13;32.33;;;-0.30;87.30;;;;;;5011737;28;20079;-65
2021/12/28 06:59:01;;;;;;;84.93;31.00;;;-0.20;87.10;;;;;;5014476;28;20596;-65
2021/12/28 07:01:27;;;;;;;86.53;30.63;;;-0.20;86.40;;;;;;5018338;28;20055;-65
2021/12/28 07:03:53;;;;;;;90.15;32.83;;;-0.10;86.20;;;;;;5009514;28;20026;-66
2021/12/28 07:06:19;;;;;;;83.32;32.78;;;-0.10;85.80;;;;;;5010766;28;20038;-65
2021/12/28 07:08:45;;;;;;;83.90;30.48;;;-0.10;86.10;;;;;;5012380;28;20032;-65
2021/12/28 07:11:10;;;;;;;81.13;30.02;;;-0.20;86.40;;;;;;5013170;28;20481;-65
2021/12/28 07:13:36;;;;;;;87.82;32.10;;;-0.20;86.80;;;;;;5006317;28;20057;-65
2021/12/28 07:16:02;;;;;;;82.82;31.65;;;-0.40;87.50;;;;;;5016344;28;20053;-65
2021/12/28 07:18:28;;;;;;;81.75;29.77;;;-0.30;87.00;;;;;;5010103;28;20049;-65
2021/12/28 07:20:58;;;;;;;77.38;30.77;;;-0.30;87.60;;;;;;5007350;28;20033;-65
2021/12/28 07:23:24;;;;;;;86.93;32.55;;;-0.30;87.60;;;;;;5013435;28;20093;-65
2021/12/28 07:25:53;;;;;;;95.32;33.22;;;-0.30;87.60;;;;;;5014336;28;20541;-65
2021/12/28 07:28:19;;;;;;;85.60;31.08;;;-0.30;87.70;;;;;;5007650;28;20044;-65
2021/12/28 07:30:45;;;;;;;83.85;31.45;;;-0.20;88.00;;;;;;5006607;28;20026;-65
2021/12/28 07:33:11;;;;;;;89.15;33.15;;;-0.10;87.10;;;;;;5010121;28;20056;-65
2021/12/28 07:35:37;;;;;;;84.32;31.02;;;0.00;87.10;;;;;;5011298;28;20141;-65
2021/12/28 07:38:02;;;;;;;81.85;29.73;;;0.00;87.10;;;;;;5006458;28;20022;-65
2021/12/28 07:40:28;;;;;;;78.53;30.17;;;0.00;87.00;;;;;;5012093;28;20556;-64
2021/12/28 07:42:54;;;;;;;76.60;28.90;;;0.00;87.00;;;;;;5009343;28;20084;-65
2021/12/28 07:45:20;;;;;;;85.78;29.73;;;0.10;86.50;;;;;;5007936;28;20042;-65
2021/12/28 07:47:46;;;;;;;75.53;29.83;;;0.30;86.20;;;;;;5010887;28;20493;-66
2021/12/28 07:50:14;;;;;;;78.70;30.55;;;0.40;85.40;;;;;;5003647;28;20044;-65
2021/12/28 07:52:41;;;;;;;82.80;29.17;;;0.30;85.80;;;;;;5003159;28;20026;-65
2021/12/28 07:55:07;;;;;;;81.55;31.17;;;0.30;85.80;;;;;;5006218;28;20033;-66
2021/12/28 07:57:34;;;;;;;83.50;30.40;;;0.40;86.30;;;;;;5001650;28;20344;-66
2021/12/28 08:00:02;;;;;;;78.40;30.95;;;0.50;85.80;;;;;;5005344;28;20044;-66
2021/12/28 08:02:37;;;;;;;87.05;31.70;;;0.60;85.50;;;;;;5010036;28;20122;-66
2021/12/28 08:05:03;;;;;;;84.22;32.20;;;0.60;85.50;;;;;;5001934;28;20036;-68
2021/12/28 08:07:29;;;;;;;85.13;31.35;;;0.50;85.60;;;;;;5002482;28;20682;-66
2021/12/28 08:09:55;;;;;;;80.80;30.58;;;0.40;86.60;;;;;;5008088;28;20032;-66
2021/12/28 08:12:21;;;;;;;85.35;29.95;;;0.50;86.60;;;;;;4991402;28;20025;-66
2021/12/28 08:14:47;;;;;;;88.60;32.80;;;0.70;85.90;;;;;;5013112;28;20978;-65
2021/12/28 08:17:12;;;;;;;83.60;31.52;;;0.80;85.30;;;;;;5003502;28;20133;-65
2021/12/28 08:19:38;;;;;;;76.95;31.38;;;0.90;85.00;;;;;;5009445;28;20478;-66
2021/12/28 08:22:04;;;;;;;77.93;30.35;;;0.90;85.10;;;;;;5008683;28;20038;-65
2021/12/28 08:24:30;;;;;;;72.38;29.77;;;0.90;85.00;;;;;;5013561;28;20037;-65
2021/12/28 08:26:56;;;;;;;88.55;31.55;;;0.90;84.90;;;;;;5015137;28;20371;-65
2021/12/28 08:29:22;;;;;;;80.50;30.35;;;0.90;85.40;;;;;;5005556;28;20172;-64
2021/12/28 08:31:48;;;;;;;88.30;31.55;;;0.90;85.20;;;;;;5000387;28;20042;-67
2021/12/28 08:34:14;;;;;;;81.88;29.92;;;1.10;85.00;;;;;;5000928;28;20700;-60
2021/12/28 08:36:39;;;;;;;79.78;30.30;;;1.20;84.20;;;;;;5015858;28;20034;-69
2021/12/28 08:39:05;;;;;;;85.32;31.67;;;1.10;84.70;;;;;;5004691;28;20041;-66
2021/12/28 08:41:31;;;;;;;80.63;30.20;;;1.30;84.70;;;;;;5006935;28;20036;-66
2021/12/28 08:43:57;;;;;;;88.22;30.48;;;1.30;84.20;;;;;;5006895;28;20660;-67
2021/12/28 08:46:23;;;;;;;77.30;29.17;;;1.20;84.80;;;;;;5005203;28;20041;-64
2021/12/28 08:48:48;;;;;;;70.68;28.08;;;1.20;85.00;;;;;;5007436;28;20033;-67
2021/12/28 08:51:14;;;;;;;79.18;30.63;;;1.10;85.40;;;;;;5014001;28;20037;-66
2021/12/28 08:53:40;;;;;;;77.63;30.42;;;1.00;86.50;;;;;;5016321;28;20038;-67
2021/12/28 08:56:06;;;;;;;78.60;29.13;;;1.00;86.20;;;;;;5011173;28;20034;-66
2021/12/28 08:58:32;;;;;;;71.15;29.73;;;1.10;85.70;;;;;;4988953;28;20038;-66
2021/12/28 09:00:58;;;;;;;72.10;29.80;;;1.20;85.40;;;;;;5011459;28;20842;-67
2021/12/28 09:03:24;;;;;;;84.45;31.27;;;1.30;85.90;;;;;;5014376;28;20155;-67
2021/12/28 09:05:50;;;;;;;79.30;30.17;;;1.30;85.30;;;;;;5016695;28;20064;-68
2021/12/28 09:08:18;;;;;;;75.18;29.55;;;1.50;85.50;;;;;;5016599;28;20044;-65
2021/12/28 09:10:45;;;;;;;74.35;29.98;;;1.50;85.40;;;;;;5020025;28;20057;-66
2021/12/28 09:13:13;;;;;;;79.88;28.50;;;1.60;85.40;;;;;;5006398;28;20030;-68
2021/12/28 09:15:38;;;;;;;78.15;27.77;;;1.70;85.30;;;;;;5004309;28;20018;-68
2021/12/28 09:18:04;;;;;;;71.07;27.50;;;1.70;85.50;;;;;;4999394;28;20048;-68
2021/12/28 09:20:30;;;;;;;78.70;27.77;;;1.80;85.60;;;;;;5009570;28;20037;-68
2021/12/28 09:22:56;;;;;;;77.85;29.23;;;1.70;86.70;;;;;;5008089;28;20034;-67
2021/12/28 09:25:22;;;;;;;73.25;28.23;;;1.70;87.80;;;;;;5004457;28;20049;-68
2021/12/28 09:27:49;;;;;;;74.75;30.20;;;1.80;87.60;;;;;;5011393;28;20429;-69
2021/12/28 09:30:15;;;;;;;76.32;29.33;;;1.80;88.40;;;;;;5010176;28;20094;-65
2021/12/28 09:32:41;;;;;;;82.30;29.80;;;1.60;88.80;;;;;;5014668;28;20029;-67
2021/12/28 09:35:08;;;;;;;78.38;30.08;;;1.60;88.90;;;;;;5015057;28;20111;-67
2021/12/28 09:37:34;;;;;;;74.93;30.13;;;1.60;89.10;;;;;;5013701;28;20037;-67
2021/12/28 09:40:03;;;;;;;75.63;28.33;;;1.60;89.80;;;;;;5007919;28;20108;-67
2021/12/28 09:42:28;;;;;;;70.82;27.40;;;1.60;90.10;;;;;;5013955;28;20037;-65
2021/12/28 09:44:54;;;;;;;68.03;27.17;;;1.70;89.80;;;;;;5012877;28;20037;-64
2021/12/28 09:47:21;;;;;;;76.13;29.02;;;1.80;89.60;;;;;;5016636;28;20033;-65
2021/12/28 09:49:48;;;;;;;78.07;29.92;;;1.80;89.40;;;;;;5014083;28;20048;-65
2021/12/28 09:52:14;;;;;;;68.97;28.63;;;1.80;89.80;;;;;;5011357;28;20052;-66
2021/12/28 09:54:40;;;;;;;66.15;27.45;;;1.90;89.70;;;;;;5019090;28;20108;-65
2021/12/28 09:57:06;;;;;;;67.70;27.52;;;2.10;88.60;;;;;;5016250;28;20033;-66
2021/12/28 09:59:32;;;;;;;73.22;28.13;;;2.10;88.10;;;;;;5018239;28;20021;-65
2021/12/28 10:01:59;;;;;;;77.25;26.65;;;2.20;88.00;;;;;;5014169;28;20025;-66
2021/12/28 10:04:28;;;;;;;70.43;27.70;;;2.10;88.70;;;;;;5012442;28;20048;-65
2021/12/28 10:07:15;;;;;;;70.35;26.98;;;2.20;88.40;;;;;;5006825;28;20125;-65
2021/12/28 10:09:41;;;;;;;71.88;27.17;;;2.20;88.50;;;;;;5013416;28;20145;-66
2021/12/28 10:12:07;;;;;;;65.95;26.88;;;2.30;88.50;;;;;;5004553;28;20900;-66
2021/12/28 10:14:32;;;;;;;70.45;28.10;;;2.50;88.40;;;;;;5008321;28;20121;-66
2021/12/28 10:17:04;;;;;;;68.85;26.92;;;2.40;87.80;;;;;;5009954;28;20136;-66
2021/12/28 10:19:40;;;;;;;67.72;25.98;;;2.40;88.90;;;;;;5010285;28;20030;-67
2021/12/28 10:22:25;;;;;;;65.75;26.63;;;2.40;88.60;;;;;;5005603;28;20026;-66
2021/12/28 10:24:54;;;;;;;63.03;26.88;;;2.40;89.10;;;;;;5004005;28;20112;-67
2021/12/28 10:27:22;;;;;;;66.28;27.40;;;2.50;87.70;;;;;;5003656;28;20367;-66
2021/12/28 10:29:48;;;;;;;60.88;25.45;;;2.60;88.40;;;;;;5013524;28;20128;-66
2021/12/28 10:32:28;;;;;;;66.95;25.50;;;2.60;87.90;;;;;;5012722;28;20160;-66
2021/12/28 10:34:58;;;;;;;65.07;25.55;;;2.60;88.00;;;;;;5006779;28;20038;-67
2021/12/28 10:37:37;;;;;;;60.05;24.40;;;2.70;87.50;;;;;;5010173;28;20049;-66
2021/12/28 10:40:09;;;;;;;60.25;23.95;;;2.80;87.60;;;;;;5003476;28;20026;-66
2021/12/28 10:42:55;;;;;;;66.63;24.83;;;3.00;87.60;;;;;;5011738;28;20575;-66
2021/12/28 10:45:25;;;;;;;60.28;24.65;;;3.20;86.50;;;;;;5014383;28;20038;-66
2021/12/28 10:47:52;;;;;;;60.67;24.42;;;3.20;85.70;;;;;;5016245;28;20065;-66
2021/12/28 10:50:31;;;;;;;65.72;23.70;;;3.20;85.70;;;;;;5012249;28;20573;-69
2021/12/28 10:53:25;;;;;;;61.17;23.80;;;3.20;85.40;;;;;;5009090;28;20030;-66
2021/12/28 10:55:57;;;;;;;61.80;25.40;;;3.00;86.40;;;;;;5002368;28;20095;-67
2021/12/28 10:58:25;;;;;;;59.45;24.35;;;3.00;86.80;;;;;;5007865;28;20057;-65
2021/12/28 11:00:52;;;;;;;53.15;22.88;;;3.10;86.40;;;;;;5015090;28;20029;-65
2021/12/28 11:03:26;;;;;;;59.38;25.13;;;3.20;85.90;;;;;;5005682;28;20034;-65
2021/12/28 11:05:53;;;;;;;58.70;24.33;;;3.30;85.50;;;;;;5012551;28;20033;-66
2021/12/28 11:08:21;;;;;;;56.17;22.83;;;3.30;85.50;;;;;;5007969;28;20044;-64
2021/12/28 11:10:50;;;;;;;64.63;23.73;;;3.30;85.40;;;;;;5007471;28;20041;-64
2021/12/28 11:13:21;;;;;;;55.42;23.10;;;3.40;84.90;;;;;;5008432;28;20018;-67
2021/12/28 11:15:48;;;;;;;59.88;24.10;;;3.30;85.30;;;;;;5006762;28;20029;-64
2021/12/28 11:18:30;;;;;;;63.13;24.65;;;3.20;85.30;;;;;;5015249;28;20118;-65
2021/12/28 11:20:58;;;;;;;54.95;22.35;;;3.20;86.30;;;;;;5002513;28;20042;-65
2021/12/28 11:23:27;;;;;;;66.43;24.92;;;3.10;86.20;;;;;;5007720;28;20804;-65
2021/12/28 11:26:07;;;;;;;65.13;22.33;;;3.20;86.00;;;;;;5008701;28;20049;-65
2021/12/28 11:28:34;;;;;;;53.30;22.65;;;3.10;86.20;;;;;;5007437;28;20018;-65
2021/12/28 11:31:11;;;;;;;61.13;24.95;;;3.20;86.60;;;;;;5012193;28;20068;-65
2021/12/28 11:34:13;;;;;;;50.40;20.88;;;3.20;86.00;;;;;;5012354;28;20071;-65
2021/12/28 11:36:45;;;;;;;52.25;22.17;;;3.30;85.30;;;;;;5010803;28;20044;-65
2021/12/28 11:39:15;;;;;;;52.85;22.83;;;3.30;85.30;;;;;;5012223;28;20021;-65
2021/12/28 11:41:41;;;;;;;59.63;23.02;;;3.20;86.50;;;;;;5008400;28;20029;-64
2021/12/28 11:44:08;;;;;;;56.85;21.83;;;3.40;85.90;;;;;;5010575;28;20033;-64
2021/12/28 11:46:34;;;;;;;49.05;20.50;;;3.30;85.70;;;;;;5005422;28;20761;-65
2021/12/28 11:48:59;;;;;;;48.72;22.08;;;3.40;85.60;;;;;;5008915;28;20124;-65
2021/12/28 11:51:26;;;;;;;56.42;22.77;;;3.40;85.40;;;;;;5004476;28;20034;-68
2021/12/28 11:53:54;;;;;;;49.35;20.98;;;3.50;86.00;;;;;;5007447;28;20038;-68
2021/12/28 11:56:27;;;;;;;60.63;22.40;;;3.30;85.90;;;;;;5008477;28;20038;-64
2021/12/28 11:59:01;;;;;;;48.88;20.63;;;3.50;85.80;;;;;;5003940;28;20649;-65
2021/12/28 12:01:50;;;;;;;49.22;20.50;;;3.50;85.70;;;;;;5009199;28;20036;-69
2021/12/28 12:04:42;;;;;;;51.40;20.00;;;3.50;85.50;;;;;;5005226;28;20155;-66
2021/12/28 12:07:22;;;;;;;52.08;21.13;;;3.50;85.80;;;;;;5007728;28;20041;-64
2021/12/28 12:09:54;;;;;;;46.78;20.35;;;3.50;85.80;;;;;;5007025;28;20044;-64
2021/12/28 12:12:23;;;;;;;51.00;21.02;;;3.50;85.90;;;;;;5007070;28;20041;-64
2021/12/28 12:14:57;;;;;;;48.65;20.75;;;3.50;85.90;;;;;;5002793;28;20026;-64
2021/12/28 12:17:28;;;;;;;51.80;21.40;;;3.50;86.20;;;;;;5004154;28;20046;-64
2021/12/28 12:20:00;;;;;;;48.15;20.65;;;3.60;86.10;;;;;;5003987;28;20045;-64
2021/12/28 12:22:37;;;;;;;45.97;20.05;;;3.70;86.00;;;;;;5009787;28;20034;-64
2021/12/28 12:25:11;;;;;;;42.63;20.17;;;3.60;85.80;;;;;;5010303;28;20030;-64
2021/12/28 12:27:53;;;;;;;46.78;20.13;;;3.50;85.90;;;;;;5009516;28;20571;-65
2021/12/28 12:30:25;;;;;;;47.08;19.45;;;3.50;86.90;;;;;;5003389;28;20026;-64
2021/12/28 12:33:11;;;;;;;46.58;20.13;;;3.40;87.60;;;;;;5009139;28;20871;-64
2021/12/28 12:35:38;;;;;;;44.77;18.93;;;3.40;87.70;;;;;;5006869;28;20080;-64